Time;durP1;ratioP1;P1;durP2;ratioP2;P2;SDS_P1;SDS_P2;PMS_P1;PMS_P2;Temp;Humidity;BMP_temperature;BMP_pressure;BME280_temperature;BME280_humidity;BME280_pressure;Samples;Min_cycle;Max_cycle;Signal;HPM_P1;HPM_P2
2023/01/24 05:30:31;;;;;;;;;50.50;41.75;;;;;5.63;59.47;103042.00;5066839;27;45677;-78
2023/01/24 05:32:58;;;;;;;;;45.75;35.75;;;;;5.72;59.81;103059.84;5056233;28;45483;-79
2023/01/24 05:35:24;;;;;;;;;42.75;38.00;;;;;5.64;59.12;103046.44;5054967;28;46603;-79
2023/01/24 05:37:50;;;;;;;;;46.25;38.25;;;;;5.50;59.30;103017.91;5038826;28;45257;-79
2023/01/24 05:40:16;;;;;;;;;48.75;40.00;;;;;5.70;59.79;103061.59;5056202;28;45538;-77
2023/01/24 05:42:44;;;;;;;;;38.75;35.50;;;;;5.42;59.55;103004.53;5056249;28;45449;-78
2023/01/24 05:45:10;;;;;;;;;42.50;34.50;;;;;5.63;59.49;103033.13;5055185;28;46875;-80
2023/01/24 05:47:36;;;;;;;;;44.25;40.50;;;;;5.74;59.22;103050.09;5056457;28;45565;-78
2023/01/24 05:50:02;;;;;;;;;40.00;35.50;;;;;5.67;59.55;103032.31;5037994;28;45505;-79
2023/01/24 05:52:27;;;;;;;;;36.50;31.25;;;;;5.84;59.61;103059.09;5056416;28;45564;-77
2023/01/24 05:54:53;;;;;;;;;47.00;39.50;;;;;5.86;59.36;103065.34;5056143;28;45521;-78
2023/01/24 05:57:20;;;;;;;;;48.75;39.00;;;;;5.80;59.45;103046.63;5056676;28;45327;-79
2023/01/24 05:59:45;;;;;;;;;40.50;35.00;;;;;5.86;59.67;103065.34;5057388;28;45373;-78
2023/01/24 06:02:11;;;;;;;;;37.00;30.50;;;;;5.61;59.47;103008.28;5056342;28;45521;-78
2023/01/24 06:04:36;;;;;;;;;42.50;37.50;;;;;5.90;58.83;103061.84;5056468;28;46847;-79
2023/01/24 06:07:02;;;;;;;;;36.00;33.25;;;;;5.87;59.44;103060.00;5056965;28;45201;-80
2023/01/24 06:09:27;;;;;;;;;32.25;32.25;;;;;5.86;59.05;103054.69;5056766;28;45610;-81
2023/01/24 06:11:53;;;;;;;;;37.00;33.50;;;;;5.87;59.10;103054.69;5036702;28;46404;-76
2023/01/24 06:14:18;;;;;;;;;55.50;43.00;;;;;5.83;59.62;103046.66;5052584;28;46602;-78
2023/01/24 06:16:45;;;;;;;;;44.75;40.00;;;;;5.83;59.50;103047.56;5056686;28;45442;-77
2023/01/24 06:19:11;;;;;;;;;57.50;41.00;;;;;5.80;59.35;103050.16;5057066;28;45268;-80
2023/01/24 06:21:46;;;;;;;;;40.75;35.25;;;;;5.89;59.03;103073.38;5057013;28;45518;-80
2023/01/24 06:24:22;;;;;;;;;34.50;33.50;;;;;5.82;58.95;103071.47;5057037;28;47694;-81
2023/01/24 06:26:49;;;;;;;;;39.00;33.50;;;;;5.91;59.11;103088.47;5035554;28;45348;-75
2023/01/24 06:29:15;;;;;;;;;39.75;34.00;;;;;5.83;59.21;103078.59;5056382;28;45229;-79
2023/01/24 06:31:43;;;;;;;;;40.00;35.00;;;;;5.86;59.29;103089.28;5056199;28;45252;-79
2023/01/24 06:34:21;;;;;;;;;39.00;35.50;;;;;5.85;59.07;103092.81;5038265;28;47195;-78
2023/01/24 06:37:01;;;;;;;;;47.50;40.50;;;;;5.87;59.63;103088.41;5058100;28;45447;-81
2023/01/24 06:39:27;;;;;;;;;38.50;29.75;;;;;5.61;59.31;103043.75;5057370;28;45502;-81
2023/01/24 06:41:53;;;;;;;;;43.50;38.50;;;;;5.88;59.17;103071.56;5036436;28;47446;-81
2023/01/24 06:44:19;;;;;;;;;37.25;33.25;;;;;5.87;59.30;103070.66;5035071;28;46624;-80
2023/01/24 06:46:44;;;;;;;;;40.75;35.50;;;;;5.49;59.85;103000.16;5051800;28;45518;-82
2023/01/24 06:49:11;;;;;;;;;44.25;41.50;;;;;5.79;59.57;103050.16;5053446;28;45455;-81
2023/01/24 06:51:36;;;;;;;;;40.00;34.50;;;;;5.78;58.91;103040.41;5052058;28;45540;-82
2023/01/24 06:54:02;;;;;;;;;41.50;36.50;;;;;6.00;59.54;103085.03;5039237;28;46382;-81
2023/01/24 06:56:27;;;;;;;;;42.00;34.25;;;;;5.84;58.94;103045.78;5057543;28;45225;-81
2023/01/24 06:58:53;;;;;;;;;54.50;38.75;;;;;5.66;59.26;103015.44;5048713;28;45346;-82
2023/01/24 07:01:18;;;;;;;;;48.50;40.00;;;;;5.76;59.10;103047.47;5056708;28;45446;-81
2023/01/24 07:03:43;;;;;;;;;48.50;40.00;;;;;5.53;59.10;103002.84;5055907;28;45521;-82
2023/01/24 07:06:09;;;;;;;;;47.50;40.75;;;;;5.80;59.94;103058.16;5055194;28;45330;-81
2023/01/24 07:08:34;;;;;;;;;52.25;41.00;;;;;5.79;59.36;103050.16;5054454;28;45339;-81
2023/01/24 07:10:59;;;;;;;;;45.50;41.00;;;;;6.01;59.21;103085.06;5055513;28;45478;-83
2023/01/24 07:13:25;;;;;;;;;33.25;31.50;;;;;5.84;59.42;103069.75;5053161;28;46254;-81
2023/01/24 07:15:50;;;;;;;;;41.00;35.75;;;;;6.05;59.16;103101.94;5055387;28;45298;-81
2023/01/24 07:18:18;;;;;;;;;54.25;41.75;;;;;5.78;59.14;103049.28;5055803;28;45314;-82
2023/01/24 07:20:44;;;;;;;;;49.75;42.00;;;;;6.08;59.18;103102.88;5034363;28;45650;-83
2023/01/24 07:23:23;;;;;;;;;53.50;41.50;;;;;5.64;59.55;103021.59;5034242;28;45994;-82
2023/01/24 07:25:52;;;;;;;;;38.50;30.00;;;;;6.04;59.62;103109.03;5051914;28;45177;-83
2023/01/24 07:28:18;;;;;;;;;45.75;40.75;;;;;5.93;59.65;103100.06;5055645;28;45428;-82
2023/01/24 07:30:45;;;;;;;;;57.25;42.25;;;;;5.97;59.52;103104.50;5055062;28;45606;-82
2023/01/24 07:33:12;;;;;;;;;49.50;41.25;;;;;5.66;59.48;103059.78;5054795;28;46194;-83
2023/01/24 07:35:37;;;;;;;;;48.25;40.75;;;;;5.45;60.19;103024.94;5055145;28;45411;-81
2023/01/24 07:38:05;;;;;;;;;52.50;40.75;;;;;5.91;60.11;103112.44;5034288;28;45245;-82
2023/01/24 07:40:33;;;;;;;;;43.50;39.50;;;;;5.95;59.80;103116.06;5030810;28;46059;-80
2023/01/24 07:43:00;;;;;;;;;56.25;43.50;;;;;5.94;60.25;103119.59;5036727;28;46833;-80
2023/01/24 07:45:26;;;;;;;;;45.67;38.33;;;;;5.62;60.20;103065.94;5020063;28;45524;-79
2023/01/24 07:47:56;;;;;;;;;52.00;42.33;;;;;5.95;60.10;103132.03;5052469;28;45300;-79
2023/01/24 07:50:26;;;;;;;;;53.00;42.00;;;;;5.79;60.25;103108.69;5053807;28;46687;-78
2023/01/24 07:52:52;;;;;;;;;48.50;39.00;;;;;5.93;59.85;103141.75;5054246;28;45436;-78
2023/01/24 07:55:19;;;;;;;;;44.50;40.00;;;;;5.91;60.18;103144.41;5054364;28;45253;-77
2023/01/24 07:57:44;;;;;;;;;47.75;40.00;;;;;5.76;60.05;103127.31;5052746;28;45317;-79
2023/01/24 08:00:10;;;;;;;;;57.25;43.25;;;;;5.59;60.19;103105.81;5054140;28;45531;-78
2023/01/24 08:02:35;;;;;;;;;51.00;42.67;;;;;5.41;60.46;103077.22;5032836;28;47632;-78
2023/01/24 08:05:01;;;;;;;;;50.00;40.25;;;;;5.82;60.54;103152.22;5049239;28;45357;-79
2023/01/24 08:07:26;;;;;;;;;57.33;45.00;;;;;5.70;60.83;103125.44;5048079;28;45311;-80
2023/01/24 08:09:52;;;;;;;;;50.33;41.33;;;;;5.89;60.18;103156.78;5043604;28;45387;-78
2023/01/24 08:12:17;;;;;;;;;36.75;33.25;;;;;5.77;60.42;103126.44;5040358;28;46002;-77
2023/01/24 08:14:43;;;;;;;;;50.00;40.75;;;;;5.88;60.39;103154.09;5043899;28;45564;-79
2023/01/24 08:17:09;;;;;;;;;55.50;43.25;;;;;5.81;60.64;103141.56;5032990;28;45429;-78
2023/01/24 08:19:35;;;;;;;;;51.25;41.25;;;;;5.41;60.33;103068.34;5032267;28;45768;-79
2023/01/24 08:22:02;;;;;;;;;53.25;42.25;;;;;5.93;60.47;103157.72;5053031;28;46250;-78
2023/01/24 08:24:27;;;;;;;;;55.33;42.00;;;;;5.51;59.92;103092.44;5035867;28;45270;-78
2023/01/24 08:26:53;;;;;;;;;45.67;38.67;;;;;5.70;60.64;103137.00;5054407;28;45717;-80
2023/01/24 08:29:18;;;;;;;;;44.67;39.67;;;;;5.64;60.47;103110.31;5036331;28;47418;-77
2023/01/24 08:31:44;;;;;;;;;39.00;36.25;;;;;5.84;60.28;103139.84;5036218;28;47292;-78
2023/01/24 08:34:10;;;;;;;;;56.00;43.25;;;;;5.76;60.21;103130.88;5054370;28;45832;-78
2023/01/24 08:36:36;;;;;;;;;46.25;41.25;;;;;5.94;60.61;103157.75;5055144;28;45327;-77
2023/01/24 08:39:04;;;;;;;;;43.75;39.00;;;;;5.61;60.46;103102.28;5041240;28;45197;-80
2023/01/24 08:41:29;;;;;;;;;43.67;39.00;;;;;5.97;60.46;103165.75;5055282;28;45986;-79
2023/01/24 08:43:55;;;;;;;;;50.75;41.75;;;;;5.72;60.52;103129.03;5051616;28;46181;-80
2023/01/24 08:46:21;;;;;;;;;48.50;42.25;;;;;5.88;60.25;103162.97;5054792;28;45433;-79
2023/01/24 08:48:46;;;;;;;;;52.75;45.25;;;;;5.66;60.51;103129.88;5050818;28;45588;-78
2023/01/24 08:51:11;;;;;;;;;58.67;44.67;;;;;5.97;60.66;103184.38;5053797;28;46097;-78
2023/01/24 08:53:37;;;;;;;;;47.50;40.00;;;;;5.81;60.69;103158.44;5044220;28;45534;-77
2023/01/24 08:56:04;;;;;;;;;50.67;42.33;;;;;5.80;60.37;103153.06;5034979;28;45389;-79
2023/01/24 08:58:33;;;;;;;;;47.50;41.50;;;;;6.03;60.56;103186.25;5022270;28;46998;-79
2023/01/24 09:00:58;;;;;;;;;52.67;43.00;;;;;6.05;60.32;103192.47;5029539;28;47336;-79
2023/01/24 09:03:24;;;;;;;;;54.67;44.00;;;;;5.81;60.22;103153.09;5031249;28;45407;-79
2023/01/24 09:05:57;;;;;;;;;59.00;41.75;;;;;5.90;60.42;103165.66;5055027;28;45549;-81
2023/01/24 09:08:23;;;;;;;;;59.33;44.33;;;;;5.71;59.97;103120.16;5058074;28;45396;-79
2023/01/24 09:10:49;;;;;;;;;51.00;45.67;;;;;5.87;60.25;103144.31;5057754;28;45613;-78
2023/01/24 09:13:14;;;;;;;;;59.67;45.33;;;;;5.88;59.96;103152.34;5053987;28;45364;-79
2023/01/24 09:15:40;;;;;;;;;46.75;41.50;;;;;6.03;60.49;103173.84;5059232;28;45319;-78
2023/01/24 09:18:05;;;;;;;;;51.25;36.00;;;;;6.02;60.14;103184.47;5058057;28;45318;-79
2023/01/24 09:20:30;;;;;;;;;58.67;47.33;;;;;5.91;60.13;103159.47;5057042;28;46323;-79
2023/01/24 09:22:56;;;;;;;;;47.50;40.75;;;;;6.00;60.61;103175.56;5057489;28;45359;-82
2023/01/24 09:25:22;;;;;;;;;49.00;40.75;;;;;5.93;60.08;103155.97;5057740;28;45585;-77
2023/01/24 09:27:55;;;;;;;;;62.50;45.25;;;;;6.16;60.05;103189.94;5057252;28;45319;-81
2023/01/24 09:30:21;;;;;;;;;64.33;45.00;;;;;5.96;60.17;103163.97;5057278;28;45513;-79
2023/01/24 09:32:47;;;;;;;;;49.25;44.50;;;;;5.83;60.43;103139.81;5057360;28;45374;-82
2023/01/24 09:35:13;;;;;;;;;66.33;47.33;;;;;5.91;60.09;103148.81;5056891;28;45409;-79
2023/01/24 09:37:39;;;;;;;;;57.00;46.67;;;;;6.01;59.91;103170.25;5057089;28;45240;-79
2023/01/24 09:40:10;;;;;;;;;59.00;44.67;;;;;6.20;60.05;103198.00;5057288;28;46114;-79
2023/01/24 09:42:40;;;;;;;;;50.50;42.00;;;;;6.10;60.17;103177.47;5057410;28;45259;-79
2023/01/24 09:45:29;;;;;;;;;55.25;43.50;;;;;6.20;60.24;103206.00;5043686;28;45362;-79
2023/01/24 09:48:05;;;;;;;;;54.50;41.00;;;;;6.11;60.10;103189.00;5040042;28;45430;-81
2023/01/24 09:50:51;;;;;;;;;52.33;45.00;;;;;6.20;60.46;103200.66;5056702;28;45576;-80
2023/01/24 09:53:47;;;;;;;;;52.25;43.75;;;;;6.21;60.48;103212.22;5062081;28;45516;-79
2023/01/24 09:56:26;;;;;;;;;58.25;44.75;;;;;6.22;60.52;103208.63;5019672;28;45416;-79
2023/01/24 09:59:23;;;;;;;;;56.75;40.75;;;;;6.24;59.98;103212.22;5052819;28;45196;-79
2023/01/24 10:01:51;;;;;;;;;49.00;42.75;;;;;6.27;59.92;103226.50;5057844;28;45369;-79
2023/01/24 10:04:36;;;;;;;;;45.50;38.25;;;;;6.25;59.95;103211.34;5056662;28;45402;-81
2023/01/24 10:07:13;;;;;;;;;53.75;41.75;;;;;6.30;60.03;103214.94;5057673;28;45325;-80
2023/01/24 10:09:44;;;;;;;;;48.00;42.00;;;;;6.05;60.15;103188.03;5056999;28;45224;-80
2023/01/24 10:12:45;;;;;;;;;58.33;44.67;;;;;6.27;60.03;103231.81;5056798;28;45424;-81
2023/01/24 10:15:38;;;;;;;;;43.00;41.33;;;;;6.24;60.29;103230.88;5045015;28;45380;-80
2023/01/24 10:18:06;;;;;;;;;42.50;36.00;;;;;6.25;60.20;103228.22;5060686;28;45109;-80
2023/01/24 10:20:54;;;;;;;;;50.25;42.75;;;;;6.25;60.38;103228.22;5061135;28;45317;-81
2023/01/24 10:23:43;;;;;;;;;55.00;42.00;;;;;6.17;60.30;103205.94;5039080;28;47104;-80
2023/01/24 10:26:21;;;;;;;;;41.50;37.00;;;;;6.24;60.53;103206.91;5058268;28;45285;-80
2023/01/24 10:28:52;;;;;;;;;47.00;39.75;;;;;6.07;60.01;103175.63;5057035;28;45272;-80
2023/01/24 10:31:37;;;;;;;;;57.50;42.50;;;;;6.38;59.76;103215.97;5058010;28;45422;-79
2023/01/24 10:34:31;;;;;;;;;46.50;39.50;;;;;6.41;60.04;103213.31;5038624;28;48430;-79
2023/01/24 10:37:11;;;;;;;;;52.50;42.75;;;;;6.25;59.71;103182.94;5057214;28;45552;-81
2023/01/24 10:39:37;;;;;;;;;44.50;35.00;;;;;6.46;60.11;103219.59;5039411;28;45374;-80
2023/01/24 10:42:16;;;;;;;;;52.25;44.50;;;;;6.46;59.63;103212.47;5056904;28;45554;-80
2023/01/24 10:44:42;;;;;;;;;48.00;40.75;;;;;6.25;59.75;103169.63;5052662;28;45571;-79
2023/01/24 10:47:32;;;;;;;;;40.00;34.75;;;;;6.51;59.90;103209.88;5056383;28;45461;-79
2023/01/24 10:50:06;;;;;;;;;49.25;41.75;;;;;6.36;59.89;103167.97;5055647;28;45246;-78
2023/01/24 10:52:33;;;;;;;;;50.25;40.75;;;;;6.24;60.05;103138.53;5062493;28;46200;-81
2023/01/24 10:55:01;;;;;;;;;50.25;42.75;;;;;6.53;60.15;103191.22;5052523;28;45725;-79
2023/01/24 10:57:35;;;;;;;;;42.00;38.00;;;;;6.26;59.73;103133.22;5056643;28;45420;-79
2023/01/24 11:00:29;;;;;;;;;46.00;38.25;;;;;6.61;59.79;103189.53;5033967;28;45367;-80
2023/01/24 11:03:00;;;;;;;;;55.00;41.75;;;;;6.57;59.83;103172.59;5035422;28;46755;-78
2023/01/24 11:05:37;;;;;;;;;38.00;37.00;;;;;6.37;59.69;103140.47;5055497;28;46057;-82
2023/01/24 11:08:04;;;;;;;;;50.25;41.50;;;;;6.47;59.35;103152.97;5055915;28;45329;-80
2023/01/24 11:10:41;;;;;;;;;49.25;39.75;;;;;6.66;59.81;103174.47;5056018;28;45413;-80
2023/01/24 11:13:25;;;;;;;;;52.75;41.25;;;;;6.58;59.66;103144.19;5051429;28;45432;-80
2023/01/24 11:15:55;;;;;;;;;51.50;40.25;;;;;6.78;59.41;103172.81;5034941;28;46788;-80
2023/01/24 11:18:24;;;;;;;;;39.25;38.00;;;;;6.74;59.78;103170.97;5055732;28;45424;-79
2023/01/24 11:21:15;;;;;;;;;48.75;38.00;;;;;6.55;59.25;103126.38;5037170;28;45514;-79
2023/01/24 11:23:41;;;;;;;;;44.25;41.50;;;;;6.83;59.58;103180.84;5034050;28;46512;-80
2023/01/24 11:26:30;;;;;;;;;44.00;33.25;;;;;6.45;59.46;103096.13;5053717;28;46210;-80
2023/01/24 11:29:01;;;;;;;;;47.00;39.25;;;;;6.83;59.25;103163.06;5055911;28;45601;-82
2023/01/24 11:32:17;;;;;;;;;49.25;40.00;;;;;6.74;59.62;103143.44;5055639;28;45446;-79
2023/01/24 11:34:46;;;;;;;;;39.75;37.25;;;;;6.70;59.26;103133.63;5055177;28;45351;-78
2023/01/24 11:37:35;;;;;;;;;39.75;35.00;;;;;6.87;59.59;103153.34;5036891;28;46470;-79
2023/01/24 11:40:04;;;;;;;;;42.25;34.00;;;;;6.86;59.53;103148.88;5054224;28;45296;-80
2023/01/24 11:42:46;;;;;;;;;42.75;37.75;;;;;6.73;59.63;103133.66;5037650;28;45273;-81
2023/01/24 11:45:36;;;;;;;;;35.00;34.75;;;;;6.87;59.28;103160.44;5042293;28;45355;-80
2023/01/24 11:48:24;;;;;;;;;36.50;30.75;;;;;6.90;59.71;103153.34;5055190;28;45386;-80
2023/01/24 11:50:59;;;;;;;;;43.50;39.50;;;;;6.94;59.32;103157.81;5058098;28;45328;-79
2023/01/24 11:53:37;;;;;;;;;54.25;40.00;;;;;6.96;59.80;103156.06;5038068;28;45591;-79
2023/01/24 11:56:05;;;;;;;;;32.25;29.75;;;;;6.99;59.33;103155.19;5056588;28;45352;-79
2023/01/24 11:58:54;;;;;;;;;47.00;38.25;;;;;6.85;59.66;103123.09;5056588;28;45656;-79
2023/01/24 12:01:39;;;;;;;;;46.50;39.25;;;;;7.05;59.43;103144.56;5057530;28;45236;-79
2023/01/24 12:04:23;;;;;;;;;37.25;34.00;;;;;7.04;59.57;103143.69;5055961;28;45305;-79
2023/01/24 12:07:17;;;;;;;;;48.75;39.50;;;;;6.98;59.19;103127.63;5056066;28;45703;-79
2023/01/24 12:09:54;;;;;;;;;42.25;38.00;;;;;6.67;59.17;103070.53;5051775;28;45428;-80
2023/01/24 12:12:40;;;;;;;;;33.75;30.50;;;;;7.04;59.34;103127.69;5055684;28;45288;-80
2023/01/24 12:15:37;;;;;;;;;40.50;35.75;;;;;6.81;59.05;103078.59;5039302;28;45272;-79
2023/01/24 12:18:21;;;;;;;;;45.25;36.50;;;;;7.06;59.49;103125.03;5034133;28;46303;-81
2023/01/24 12:21:08;;;;;;;;;40.00;35.25;;;;;6.80;59.18;103077.72;5054000;28;46422;-81
2023/01/24 12:24:09;;;;;;;;;32.50;25.00;;;;;7.14;59.48;103123.31;5054584;28;45416;-80
2023/01/24 12:26:49;;;;;;;;;38.00;35.00;;;;;7.11;59.39;103110.81;5022639;28;45367;-79
2023/01/24 12:29:27;;;;;;;;;43.00;38.00;;;;;6.93;59.45;103073.38;5036404;28;47805;-79
2023/01/24 12:32:38;;;;;;;;;45.25;36.50;;;;;7.19;59.05;103106.44;5054678;28;46587;-79
2023/01/24 12:35:40;;;;;;;;;45.00;37.75;;;;;7.10;59.43;103095.72;5050414;28;45333;-78
2023/01/24 12:38:43;;;;;;;;;48.25;38.00;;;;;6.88;59.11;103056.47;4991137;28;45324;-80
2023/01/24 12:41:35;;;;;;;;;44.50;38.00;;;;;7.19;59.25;103116.22;5058409;28;46585;-81
2023/01/24 12:44:22;;;;;;;;;39.50;36.25;;;;;7.19;59.38;103101.09;5056417;28;45475;-80
2023/01/24 12:47:29;;;;;;;;;41.50;35.25;;;;;7.20;59.47;103110.88;5039029;28;45863;-80
2023/01/24 12:49:58;;;;;;;;;42.50;38.00;;;;;7.18;59.16;103109.97;5042918;28;45393;-82
2023/01/24 12:52:42;;;;;;;;;37.50;34.75;;;;;6.93;59.08;103059.16;5058551;28;45511;-80
2023/01/24 12:55:19;;;;;;;;;46.25;37.75;;;;;6.97;58.97;103069.84;5063349;28;46566;-78
2023/01/24 12:57:45;;;;;;;;;45.00;38.00;;;;;7.18;59.48;103112.66;5058801;28;45377;-79
2023/01/24 13:00:22;;;;;;;;;41.25;35.75;;;;;7.17;59.28;103105.53;5058892;28;45532;-79
2023/01/24 13:03:06;;;;;;;;;42.50;39.25;;;;;7.18;59.32;103096.63;5059700;28;45378;-80
2023/01/24 13:06:02;;;;;;;;;50.00;39.50;;;;;7.20;59.25;103100.22;5040992;28;48071;-80
2023/01/24 13:08:30;;;;;;;;;39.25;36.00;;;;;7.20;59.70;103102.00;5059618;28;45342;-81
2023/01/24 13:11:24;;;;;;;;;44.75;35.50;;;;;7.04;59.15;103055.66;5060267;28;45190;-81
2023/01/24 13:14:00;;;;;;;;;44.00;38.25;;;;;7.19;60.01;103092.19;5057923;28;45109;-80
2023/01/24 13:17:11;;;;;;;;;45.00;37.75;;;;;7.12;59.46;103085.06;5065800;28;45407;-79
2023/01/24 13:20:14;;;;;;;;;45.25;37.75;;;;;7.16;59.29;103098.41;5074590;28;44832;-78
2023/01/24 13:23:04;;;;;;;;;52.00;37.75;;;;;7.16;59.50;103094.84;5073321;28;45509;-79
2023/01/24 13:26:06;;;;;;;;;45.75;39.50;;;;;7.14;59.63;103093.97;5070668;28;44817;-80
2023/01/24 13:28:55;;;;;;;;;48.50;41.75;;;;;7.11;59.73;103077.94;5059996;28;46157;-81
2023/01/24 13:31:54;;;;;;;;;49.00;38.75;;;;;6.88;59.51;103040.47;5058881;28;45336;-80
2023/01/24 13:34:25;;;;;;;;;46.00;40.50;;;;;7.21;59.38;103095.78;5060145;28;45347;-80
2023/01/24 13:36:51;;;;;;;;;49.25;37.25;;;;;7.20;59.44;103086.88;5041353;28;46091;-80
2023/01/24 13:39:32;;;;;;;;;47.25;40.00;;;;;7.27;59.92;103094.91;5057926;28;45292;-79
2023/01/24 13:42:05;;;;;;;;;42.75;38.00;;;;;7.05;59.52;103049.47;5039100;28;45922;-80
2023/01/24 13:44:35;;;;;;;;;46.00;40.25;;;;;7.31;59.34;103094.94;5056590;28;45382;-82
2023/01/24 13:47:10;;;;;;;;;55.75;41.50;;;;;7.32;59.35;103088.69;5057090;28;45545;-81
2023/01/24 13:50:09;;;;;;;;;46.75;37.50;;;;;7.33;59.16;103087.81;5055846;28;45660;-80
2023/01/24 13:52:37;;;;;;;;;45.25;39.50;;;;;7.35;59.75;103088.72;5052701;28;45494;-81
2023/01/24 13:55:25;;;;;;;;;43.75;37.25;;;;;7.37;59.30;103091.41;5056484;28;45364;-80
2023/01/24 13:58:18;;;;;;;;;43.50;36.75;;;;;7.30;59.38;103077.16;5006820;28;45531;-79
2023/01/24 14:00:44;;;;;;;;;40.50;36.50;;;;;7.38;59.52;103096.75;5057046;28;45525;-79
2023/01/24 14:03:26;;;;;;;;;48.75;36.00;;;;;7.38;59.40;103094.09;5058943;28;45331;-80
2023/01/24 14:05:54;;;;;;;;;37.25;36.75;;;;;7.36;59.49;103095.84;5059321;28;45407;-80
2023/01/24 14:08:20;;;;;;;;;51.25;37.75;;;;;7.36;59.69;103095.84;5057648;28;45410;-80
2023/01/24 14:11:14;;;;;;;;;37.50;37.00;;;;;7.26;59.76;103074.44;5058043;28;46349;-78
2023/01/24 14:13:54;;;;;;;;;40.75;38.25;;;;;7.38;59.23;103091.41;5055013;28;45569;-79
2023/01/24 14:16:34;;;;;;;;;36.75;34.25;;;;;7.40;59.25;103094.09;5057166;28;45413;-81
2023/01/24 14:19:07;;;;;;;;;38.50;36.50;;;;;7.41;59.57;103094.06;5056841;28;45281;-80
2023/01/24 14:21:57;;;;;;;;;44.25;37.50;;;;;7.42;59.61;103095.88;5056837;28;46302;-80
2023/01/24 14:24:52;;;;;;;;;39.50;37.50;;;;;7.42;59.41;103092.31;5056672;28;45363;-80
2023/01/24 14:27:30;;;;;;;;;52.25;41.25;;;;;7.19;59.46;103058.41;5055605;28;45361;-79
2023/01/24 14:30:03;;;;;;;;;46.75;40.75;;;;;7.36;59.43;103084.28;5058218;28;45342;-81
2023/01/24 14:32:46;;;;;;;;;37.00;35.75;;;;;7.20;59.21;103062.88;5056555;28;45434;-79
2023/01/24 14:35:21;;;;;;;;;46.50;41.00;;;;;7.40;59.72;103092.28;5056629;28;45258;-80
2023/01/24 14:37:47;;;;;;;;;49.25;39.50;;;;;7.15;59.51;103056.59;5057583;28;45260;-80
2023/01/24 14:40:16;;;;;;;;;53.50;38.50;;;;;7.40;59.78;103099.44;5038342;28;46141;-79
2023/01/24 14:42:41;;;;;;;;;48.25;39.50;;;;;7.16;59.83;103058.38;5056480;28;46333;-78
2023/01/24 14:45:13;;;;;;;;;49.00;38.50;;;;;7.38;60.03;103096.75;5041136;28;45416;-80
2023/01/24 14:47:40;;;;;;;;;53.25;38.75;;;;;7.10;59.91;103055.69;5031803;28;45450;-80
2023/01/24 14:50:28;;;;;;;;;56.25;40.50;;;;;7.29;59.46;103090.47;5038980;28;47276;-78
2023/01/24 14:52:55;;;;;;;;;43.75;36.00;;;;;6.79;59.69;103006.66;5057442;28;45534;-80
2023/01/24 14:55:26;;;;;;;;;42.75;36.25;;;;;7.33;59.58;103098.50;5041071;28;45286;-80
2023/01/24 14:57:53;;;;;;;;;41.00;36.50;;;;;7.05;59.92;103054.78;5051811;28;45493;-80
2023/01/24 15:00:19;;;;;;;;;43.75;38.75;;;;;7.08;59.79;103062.78;5055983;28;45522;-78
2023/01/24 15:02:53;;;;;;;;;44.25;39.00;;;;;7.30;59.85;103100.28;5055841;28;45275;-80
2023/01/24 15:05:24;;;;;;;;;43.50;40.00;;;;;7.29;59.90;103102.03;5054354;28;45464;-79
2023/01/24 15:07:49;;;;;;;;;40.25;35.00;;;;;7.30;60.35;103102.94;5055936;28;45422;-79
2023/01/24 15:10:15;;;;;;;;;38.25;34.75;;;;;6.96;59.81;103049.41;5037775;28;46282;-80
2023/01/24 15:12:41;;;;;;;;;40.50;34.75;;;;;6.92;60.10;103049.34;5053275;28;46011;-79
2023/01/24 15:15:17;;;;;;;;;41.50;35.50;;;;;7.23;60.13;103101.97;5055890;28;45448;-79
2023/01/24 15:17:47;;;;;;;;;44.75;36.25;;;;;6.86;60.13;103052.00;5055891;28;45529;-81
2023/01/24 15:20:18;;;;;;;;;38.50;36.50;;;;;6.89;59.87;103060.03;5054411;28;46145;-79
2023/01/24 15:22:50;;;;;;;;;45.25;37.50;;;;;7.23;59.97;103110.00;5055673;28;46585;-77
2023/01/24 15:25:27;;;;;;;;;37.25;34.00;;;;;7.10;59.94;103097.47;5034520;28;45482;-79
2023/01/24 15:27:53;;;;;;;;;45.75;37.00;;;;;7.21;59.97;103115.34;5056096;28;45318;-79
2023/01/24 15:30:27;;;;;;;;;44.00;33.75;;;;;7.17;59.80;103110.84;5033914;28;45403;-78
2023/01/24 15:32:55;;;;;;;;;40.75;36.50;;;;;7.22;59.98;103121.56;5034532;28;46261;-78
2023/01/24 15:35:24;;;;;;;;;40.25;35.00;;;;;7.15;60.08;103109.94;5037161;28;45292;-79
2023/01/24 15:38:04;;;;;;;;;40.75;38.00;;;;;7.23;59.86;103124.22;5055436;28;45400;-78
2023/01/24 15:40:31;;;;;;;;;37.50;37.00;;;;;6.99;60.19;103080.50;5055230;28;45483;-79
2023/01/24 15:45:47;;;;;;;;;42.00;37.25;;;;;7.09;59.99;103093.03;5050960;28;45162;-78
2023/01/24 15:48:24;;;;;;;;;44.25;35.75;;;;;7.23;59.95;103116.22;5053971;28;45367;-79
2023/01/24 15:51:08;;;;;;;;;36.75;31.00;;;;;7.17;59.93;103107.28;5054912;28;45555;-81
2023/01/24 15:53:35;;;;;;;;;40.75;37.75;;;;;7.26;60.21;103119.78;5048824;28;46226;-79
2023/01/24 15:56:05;;;;;;;;;43.50;40.75;;;;;7.23;59.70;103118.88;5050831;28;45496;-77
2023/01/24 15:58:33;;;;;;;;;38.50;36.00;;;;;7.26;59.75;103122.47;5036308;28;45594;-81
2023/01/24 16:00:59;;;;;;;;;39.50;35.00;;;;;7.16;59.94;103108.19;5054137;28;45476;-81
2023/01/24 16:03:25;;;;;;;;;46.50;37.50;;;;;7.08;60.10;103096.56;5056322;28;45357;-82
2023/01/24 16:05:51;;;;;;;;;32.00;32.00;;;;;7.25;60.02;103121.56;5056420;28;45452;-80
2023/01/24 16:08:17;;;;;;;;;36.50;34.50;;;;;7.15;60.26;103107.28;5056706;28;45331;-76
2023/01/24 16:10:47;;;;;;;;;44.75;35.75;;;;;7.05;59.94;103096.56;5056052;28;45355;-77
2023/01/24 16:13:34;;;;;;;;;40.25;35.25;;;;;7.22;59.71;103130.47;5058402;28;45531;-77
2023/01/24 16:16:03;;;;;;;;;35.25;29.25;;;;;7.17;60.00;103131.31;5062303;28;45429;-79
2023/01/24 16:18:29;;;;;;;;;43.25;37.25;;;;;6.90;59.96;103097.34;5064950;28;45283;-77
2023/01/24 16:20:58;;;;;;;;;42.00;38.25;;;;;6.90;59.85;103101.78;5062930;28;45450;-79
2023/01/24 16:23:23;;;;;;;;;42.75;34.75;;;;;7.01;60.44;103138.31;5064400;28;46166;-78
2023/01/24 16:25:54;;;;;;;;;42.25;27.75;;;;;6.88;60.49;103116.91;5063867;28;45403;-78
2023/01/24 16:28:23;;;;;;;;;38.25;32.50;;;;;6.83;60.53;103108.84;5033657;28;45360;-79
2023/01/24 16:30:50;;;;;;;;;35.00;30.00;;;;;6.97;60.25;103131.19;5060885;28;45417;-78
2023/01/24 16:33:16;;;;;;;;;33.25;28.00;;;;;6.63;60.33;103092.72;5078722;28;46047;-80
2023/01/24 16:35:42;;;;;;;;;44.00;35.00;;;;;6.86;60.55;103142.66;5043908;28;45341;-79
2023/01/24 16:38:13;;;;;;;;;49.50;40.50;;;;;6.86;60.77;103145.31;5062045;28;45260;-77
2023/01/24 16:40:39;;;;;;;;;33.75;31.25;;;;;6.79;60.97;103147.94;5063459;28;45567;-80
2023/01/24 16:43:06;;;;;;;;;40.00;34.25;;;;;6.79;60.93;103152.38;5061566;28;45380;-82
2023/01/24 16:45:32;;;;;;;;;51.25;36.25;;;;;6.65;61.18;103124.69;5051356;28;45444;-80
2023/01/24 16:47:58;;;;;;;;;43.00;34.00;;;;;6.77;60.77;103148.81;5032107;28;45313;-81
2023/01/24 16:50:23;;;;;;;;;39.50;34.25;;;;;6.76;61.43;103158.56;5058718;28;46054;-80
2023/01/24 16:52:49;;;;;;;;;44.50;37.50;;;;;6.64;61.14;103131.78;5058093;28;45410;-79
2023/01/24 16:55:15;;;;;;;;;35.75;33.25;;;;;6.54;61.55;103123.72;5061583;28;45358;-81
2023/01/24 16:57:40;;;;;;;;;29.25;27.25;;;;;6.36;60.72;103090.72;5061989;28;45381;-81
2023/01/24 17:00:12;;;;;;;;;34.25;31.00;;;;;6.65;60.97;103148.69;5062098;28;45400;-80
2023/01/24 17:02:42;;;;;;;;;38.25;34.00;;;;;6.66;61.27;103146.03;5060795;28;45422;-80
2023/01/24 17:05:08;;;;;;;;;38.25;32.75;;;;;6.53;61.06;103127.28;5059670;28;45516;-81
2023/01/24 17:07:33;;;;;;;;;32.75;28.25;;;;;6.53;61.10;103128.16;5060120;28;45513;-82
2023/01/24 17:10:02;;;;;;;;;36.00;30.50;;;;;6.41;61.37;103115.63;5061290;28;45356;-83
2023/01/24 17:12:28;;;;;;;;;30.50;26.75;;;;;6.49;61.26;103123.69;5059532;28;46534;-81
2023/01/24 17:14:53;;;;;;;;;38.75;30.75;;;;;6.78;61.63;103171.91;5060983;28;45248;-81
2023/01/24 17:17:18;;;;;;;;;29.50;28.75;;;;;6.81;61.61;103162.16;5061719;28;45404;-81